sensor_id;sensor_type;location;lat;lon;timestamp;P1;durP1;ratioP1;P2;durP2;ratioP2
934;SDS011;454;53.254;10.400;2024-03-29T05:01:32;1.38;;;0.57;;
934;SDS011;454;53.254;10.400;2024-03-29T05:04:00;0.77;;;0.60;;
934;SDS011;454;53.254;10.400;2024-03-29T05:06:27;0.30;;;0.30;;
934;SDS011;454;53.254;10.400;2024-03-29T05:08:55;0.50;;;0.50;;
934;SDS011;454;53.254;10.400;2024-03-29T05:11:22;0.63;;;0.63;;
934;SDS011;454;53.254;10.400;2024-03-29T05:13:48;0.45;;;0.45;;
934;SDS011;454;53.254;10.400;2024-03-29T05:16:15;0.40;;;0.40;;
934;SDS011;454;53.254;10.400;2024-03-29T05:18:43;0.50;;;0.40;;
934;SDS011;454;53.254;10.400;2024-03-29T05:21:10;0.47;;;0.47;;
934;SDS011;454;53.254;10.400;2024-03-29T05:23:37;0.50;;;0.50;;
934;SDS011;454;53.254;10.400;2024-03-29T05:26:03;1.00;;;0.50;;
934;SDS011;454;53.254;10.400;2024-03-29T05:28:30;0.30;;;0.30;;
934;SDS011;454;53.254;10.400;2024-03-29T05:31:08;0.50;;;0.50;;
934;SDS011;454;53.254;10.400;2024-03-29T05:33:38;0.50;;;0.50;;
934;SDS011;454;53.254;10.400;2024-03-29T05:36:06;0.68;;;0.60;;
934;SDS011;454;53.254;10.400;2024-03-29T05:38:35;0.20;;;0.20;;
934;SDS011;454;53.254;10.400;2024-03-29T05:41:02;0.63;;;0.63;;
934;SDS011;454;53.254;10.400;2024-03-29T05:43:29;0.57;;;0.28;;
934;SDS011;454;53.254;10.400;2024-03-29T05:45:56;0.50;;;0.50;;
934;SDS011;454;53.254;10.400;2024-03-29T05:48:23;0.30;;;0.30;;
934;SDS011;454;53.254;10.400;2024-03-29T05:50:49;3.42;;;0.40;;
934;SDS011;454;53.254;10.400;2024-03-29T05:53:17;1.20;;;0.63;;
934;SDS011;454;53.254;10.400;2024-03-29T05:55:44;0.95;;;0.40;;
934;SDS011;454;53.254;10.400;2024-03-29T05:58:11;1.95;;;0.65;;
934;SDS011;454;53.254;10.400;2024-03-29T06:00:42;0.35;;;0.30;;
934;SDS011;454;53.254;10.400;2024-03-29T06:03:09;1.85;;;0.98;;
934;SDS011;454;53.254;10.400;2024-03-29T06:05:36;0.40;;;0.40;;
934;SDS011;454;53.254;10.400;2024-03-29T06:08:03;3.60;;;0.35;;
934;SDS011;454;53.254;10.400;2024-03-29T06:10:31;0.20;;;0.20;;
934;SDS011;454;53.254;10.400;2024-03-29T06:12:59;0.75;;;0.55;;
934;SDS011;454;53.254;10.400;2024-03-29T06:15:32;0.32;;;0.32;;
934;SDS011;454;53.254;10.400;2024-03-29T06:18:16;0.32;;;0.20;;
934;SDS011;454;53.254;10.400;2024-03-29T06:20:43;0.73;;;0.73;;
934;SDS011;454;53.254;10.400;2024-03-29T06:23:10;0.47;;;0.47;;
934;SDS011;454;53.254;10.400;2024-03-29T06:25:38;0.30;;;0.30;;
934;SDS011;454;53.254;10.400;2024-03-29T06:28:05;1.95;;;0.38;;
934;SDS011;454;53.254;10.400;2024-03-29T06:30:32;0.77;;;0.40;;
934;SDS011;454;53.254;10.400;2024-03-29T06:32:59;0.50;;;0.50;;
934;SDS011;454;53.254;10.400;2024-03-29T06:35:27;3.50;;;0.30;;
934;SDS011;454;53.254;10.400;2024-03-29T06:37:54;0.50;;;0.50;;
934;SDS011;454;53.254;10.400;2024-03-29T06:40:22;0.70;;;0.70;;
934;SDS011;454;53.254;10.400;2024-03-29T06:42:50;0.35;;;0.35;;
934;SDS011;454;53.254;10.400;2024-03-29T06:45:16;2.95;;;0.43;;
934;SDS011;454;53.254;10.400;2024-03-29T06:47:43;0.57;;;0.47;;
934;SDS011;454;53.254;10.400;2024-03-29T06:50:10;0.40;;;0.40;;
934;SDS011;454;53.254;10.400;2024-03-29T06:52:37;0.25;;;0.25;;
934;SDS011;454;53.254;10.400;2024-03-29T06:55:04;0.30;;;0.30;;
934;SDS011;454;53.254;10.400;2024-03-29T06:57:31;0.50;;;0.50;;
934;SDS011;454;53.254;10.400;2024-03-29T07:00:02;0.40;;;0.40;;
934;SDS011;454;53.254;10.400;2024-03-29T07:02:29;8.68;;;1.00;;
934;SDS011;454;53.254;10.400;2024-03-29T07:04:56;1.75;;;0.60;;
934;SDS011;454;53.254;10.400;2024-03-29T07:07:22;0.38;;;0.35;;
934;SDS011;454;53.254;10.400;2024-03-29T07:09:49;0.30;;;0.30;;
934;SDS011;454;53.254;10.400;2024-03-29T07:12:16;0.40;;;0.40;;
934;SDS011;454;53.254;10.400;2024-03-29T07:14:43;6.88;;;0.77;;
934;SDS011;454;53.254;10.400;2024-03-29T07:17:11;0.75;;;0.40;;
934;SDS011;454;53.254;10.400;2024-03-29T07:19:38;0.90;;;0.40;;
934;SDS011;454;53.254;10.400;2024-03-29T07:22:04;0.30;;;0.30;;
934;SDS011;454;53.254;10.400;2024-03-29T07:24:31;3.53;;;0.43;;
934;SDS011;454;53.254;10.400;2024-03-29T07:26:58;0.30;;;0.30;;
934;SDS011;454;53.254;10.400;2024-03-29T07:29:24;0.80;;;0.38;;
934;SDS011;454;53.254;10.400;2024-03-29T07:31:51;0.30;;;0.30;;
934;SDS011;454;53.254;10.400;2024-03-29T07:34:18;0.20;;;0.20;;
934;SDS011;454;53.254;10.400;2024-03-29T07:36:45;0.88;;;0.32;;
934;SDS011;454;53.254;10.400;2024-03-29T07:39:12;1.23;;;1.02;;
934;SDS011;454;53.254;10.400;2024-03-29T07:41:39;3.60;;;1.95;;
934;SDS011;454;53.254;10.400;2024-03-29T07:44:05;9.48;;;7.65;;
934;SDS011;454;53.254;10.400;2024-03-29T07:46:33;4.43;;;2.22;;
934;SDS011;454;53.254;10.400;2024-03-29T07:49:02;4.25;;;3.15;;
934;SDS011;454;53.254;10.400;2024-03-29T07:51:30;2.42;;;2.33;;
934;SDS011;454;53.254;10.400;2024-03-29T07:53:57;4.10;;;3.22;;
934;SDS011;454;53.254;10.400;2024-03-29T07:56:24;1.85;;;1.75;;
934;SDS011;454;53.254;10.400;2024-03-29T07:58:51;3.72;;;3.35;;
934;SDS011;454;53.254;10.400;2024-03-29T08:01:18;5.03;;;3.65;;
934;SDS011;454;53.254;10.400;2024-03-29T08:03:46;7.13;;;4.05;;
934;SDS011;454;53.254;10.400;2024-03-29T08:06:13;0.55;;;0.55;;
934;SDS011;454;53.254;10.400;2024-03-29T08:08:43;1.90;;;1.80;;
934;SDS011;454;53.254;10.400;2024-03-29T08:11:10;1.30;;;1.20;;
934;SDS011;454;53.254;10.400;2024-03-29T08:13:38;0.30;;;0.30;;
934;SDS011;454;53.254;10.400;2024-03-29T08:16:05;0.85;;;0.85;;
934;SDS011;454;53.254;10.400;2024-03-29T08:18:31;0.80;;;0.80;;
934;SDS011;454;53.254;10.400;2024-03-29T08:20:59;0.65;;;0.65;;
934;SDS011;454;53.254;10.400;2024-03-29T08:23:25;2.50;;;1.20;;
934;SDS011;454;53.254;10.400;2024-03-29T08:25:53;0.80;;;0.80;;
934;SDS011;454;53.254;10.400;2024-03-29T08:28:21;5.30;;;0.85;;
934;SDS011;454;53.254;10.400;2024-03-29T08:30:56;0.75;;;0.75;;
934;SDS011;454;53.254;10.400;2024-03-29T08:33:24;0.50;;;0.50;;
934;SDS011;454;53.254;10.400;2024-03-29T08:35:51;0.38;;;0.38;;
934;SDS011;454;53.254;10.400;2024-03-29T08:38:18;1.60;;;0.73;;
934;SDS011;454;53.254;10.400;2024-03-29T08:40:45;0.43;;;0.38;;
934;SDS011;454;53.254;10.400;2024-03-29T08:43:14;0.73;;;0.73;;
934;SDS011;454;53.254;10.400;2024-03-29T08:45:41;0.30;;;0.30;;
934;SDS011;454;53.254;10.400;2024-03-29T08:48:08;0.20;;;0.20;;
934;SDS011;454;53.254;10.400;2024-03-29T08:50:35;0.50;;;0.47;;
934;SDS011;454;53.254;10.400;2024-03-29T08:53:02;0.77;;;0.50;;
934;SDS011;454;53.254;10.400;2024-03-29T08:55:30;0.52;;;0.52;;
934;SDS011;454;53.254;10.400;2024-03-29T08:57:57;1.25;;;1.08;;
934;SDS011;454;53.254;10.400;2024-03-29T09:00:26;0.30;;;0.30;;
934;SDS011;454;53.254;10.400;2024-03-29T09:02:52;0.43;;;0.30;;
934;SDS011;454;53.254;10.400;2024-03-29T09:05:19;0.20;;;0.20;;
934;SDS011;454;53.254;10.400;2024-03-29T09:07:47;0.30;;;0.30;;
934;SDS011;454;53.254;10.400;2024-03-29T09:10:14;0.40;;;0.30;;
934;SDS011;454;53.254;10.400;2024-03-29T09:12:41;0.30;;;0.30;;
934;SDS011;454;53.254;10.400;2024-03-29T09:15:08;0.40;;;0.40;;
934;SDS011;454;53.254;10.400;2024-03-29T09:17:39;3.10;;;0.75;;
934;SDS011;454;53.254;10.400;2024-03-29T09:20:06;0.30;;;0.30;;
934;SDS011;454;53.254;10.400;2024-03-29T09:22:33;0.32;;;0.32;;
934;SDS011;454;53.254;10.400;2024-03-29T09:25:00;0.30;;;0.30;;
934;SDS011;454;53.254;10.400;2024-03-29T09:27:28;0.38;;;0.38;;
934;SDS011;454;53.254;10.400;2024-03-29T09:29:55;0.20;;;0.20;;
934;SDS011;454;53.254;10.400;2024-03-29T09:32:22;2.15;;;0.60;;
934;SDS011;454;53.254;10.400;2024-03-29T09:34:50;0.98;;;0.98;;
934;SDS011;454;53.254;10.400;2024-03-29T09:37:17;1.15;;;0.30;;
934;SDS011;454;53.254;10.400;2024-03-29T09:39:45;1.05;;;0.52;;
934;SDS011;454;53.254;10.400;2024-03-29T09:42:13;0.82;;;0.40;;
934;SDS011;454;53.254;10.400;2024-03-29T09:44:43;2.88;;;1.38;;
934;SDS011;454;53.254;10.400;2024-03-29T09:47:10;0.73;;;0.73;;
934;SDS011;454;53.254;10.400;2024-03-29T09:49:41;0.30;;;0.30;;
934;SDS011;454;53.254;10.400;2024-03-29T09:52:10;0.38;;;0.35;;
934;SDS011;454;53.254;10.400;2024-03-29T09:54:38;0.63;;;0.63;;
934;SDS011;454;53.254;10.400;2024-03-29T09:57:05;3.22;;;3.13;;
934;SDS011;454;53.254;10.400;2024-03-29T09:59:32;0.30;;;0.30;;
934;SDS011;454;53.254;10.400;2024-03-29T10:02:00;0.85;;;0.35;;
934;SDS011;454;53.254;10.400;2024-03-29T10:04:29;1.95;;;1.00;;
934;SDS011;454;53.254;10.400;2024-03-29T10:06:57;2.25;;;0.70;;
934;SDS011;454;53.254;10.400;2024-03-29T10:09:25;0.70;;;0.70;;
934;SDS011;454;53.254;10.400;2024-03-29T10:11:54;0.40;;;0.40;;
934;SDS011;454;53.254;10.400;2024-03-29T10:14:21;0.20;;;0.20;;
934;SDS011;454;53.254;10.400;2024-03-29T10:16:50;0.50;;;0.50;;
934;SDS011;454;53.254;10.400;2024-03-29T10:19:17;2.17;;;0.93;;
934;SDS011;454;53.254;10.400;2024-03-29T10:21:43;0.40;;;0.40;;
934;SDS011;454;53.254;10.400;2024-03-29T10:24:11;2.45;;;0.85;;
934;SDS011;454;53.254;10.400;2024-03-29T10:26:40;0.82;;;0.50;;
934;SDS011;454;53.254;10.400;2024-03-29T10:29:07;0.40;;;0.40;;
934;SDS011;454;53.254;10.400;2024-03-29T10:31:34;1.27;;;0.85;;
934;SDS011;454;53.254;10.400;2024-03-29T10:34:02;1.45;;;1.17;;
934;SDS011;454;53.254;10.400;2024-03-29T10:36:30;1.85;;;0.98;;
934;SDS011;454;53.254;10.400;2024-03-29T10:39:00;0.73;;;0.73;;
934;SDS011;454;53.254;10.400;2024-03-29T10:41:28;0.45;;;0.45;;
934;SDS011;454;53.254;10.400;2024-03-29T10:43:57;0.82;;;0.82;;
934;SDS011;454;53.254;10.400;2024-03-29T10:46:25;7.82;;;0.50;;
934;SDS011;454;53.254;10.400;2024-03-29T10:48:53;1.20;;;0.40;;
934;SDS011;454;53.254;10.400;2024-03-29T10:51:21;0.52;;;0.52;;
934;SDS011;454;53.254;10.400;2024-03-29T10:53:48;1.58;;;0.60;;
934;SDS011;454;53.254;10.400;2024-03-29T10:56:17;0.65;;;0.65;;
934;SDS011;454;53.254;10.400;2024-03-29T10:58:48;1.50;;;1.50;;
934;SDS011;454;53.254;10.400;2024-03-29T11:01:21;1.80;;;1.70;;
934;SDS011;454;53.254;10.400;2024-03-29T11:03:52;4.97;;;2.97;;
934;SDS011;454;53.254;10.400;2024-03-29T11:06:20;2.55;;;2.35;;
934;SDS011;454;53.254;10.400;2024-03-29T11:08:53;0.95;;;0.95;;
934;SDS011;454;53.254;10.400;2024-03-29T11:11:23;2.40;;;2.30;;
934;SDS011;454;53.254;10.400;2024-03-29T11:13:58;1.95;;;1.85;;
934;SDS011;454;53.254;10.400;2024-03-29T11:16:30;2.42;;;2.08;;
934;SDS011;454;53.254;10.400;2024-03-29T11:18:57;2.53;;;1.67;;
934;SDS011;454;53.254;10.400;2024-03-29T11:21:26;2.27;;;2.17;;
934;SDS011;454;53.254;10.400;2024-03-29T11:23:55;4.43;;;4.03;;
934;SDS011;454;53.254;10.400;2024-03-29T11:26:22;4.00;;;2.00;;
934;SDS011;454;53.254;10.400;2024-03-29T11:28:51;1.80;;;1.80;;
934;SDS011;454;53.254;10.400;2024-03-29T11:31:21;2.40;;;2.20;;
934;SDS011;454;53.254;10.400;2024-03-29T11:33:50;1.53;;;1.43;;
934;SDS011;454;53.254;10.400;2024-03-29T11:36:19;4.13;;;3.80;;
934;SDS011;454;53.254;10.400;2024-03-29T11:38:49;2.53;;;2.20;;
934;SDS011;454;53.254;10.400;2024-03-29T11:41:17;5.73;;;2.60;;
934;SDS011;454;53.254;10.400;2024-03-29T11:43:46;3.43;;;3.20;;
934;SDS011;454;53.254;10.400;2024-03-29T11:46:13;3.63;;;2.00;;
934;SDS011;454;53.254;10.400;2024-03-29T11:48:41;4.67;;;3.80;;
934;SDS011;454;53.254;10.400;2024-03-29T11:51:11;10.37;;;3.60;;
934;SDS011;454;53.254;10.400;2024-03-29T11:53:39;3.70;;;2.93;;
934;SDS011;454;53.254;10.400;2024-03-29T11:56:06;2.60;;;1.73;;
934;SDS011;454;53.254;10.400;2024-03-29T11:58:33;1.00;;;1.00;;
934;SDS011;454;53.254;10.400;2024-03-29T12:01:01;2.93;;;1.87;;
934;SDS011;454;53.254;10.400;2024-03-29T12:03:28;2.23;;;2.03;;
934;SDS011;454;53.254;10.400;2024-03-29T12:05:56;7.40;;;3.37;;
934;SDS011;454;53.254;10.400;2024-03-29T12:08:25;2.00;;;1.80;;
934;SDS011;454;53.254;10.400;2024-03-29T12:10:52;1.00;;;1.00;;
934;SDS011;454;53.254;10.400;2024-03-29T12:13:18;2.33;;;2.23;;
934;SDS011;454;53.254;10.400;2024-03-29T12:15:45;6.40;;;5.27;;
934;SDS011;454;53.254;10.400;2024-03-29T12:18:12;5.20;;;3.80;;
934;SDS011;454;53.254;10.400;2024-03-29T12:20:41;4.50;;;3.70;;
934;SDS011;454;53.254;10.400;2024-03-29T12:23:11;0.70;;;0.70;;
934;SDS011;454;53.254;10.400;2024-03-29T12:25:40;10.37;;;5.87;;
934;SDS011;454;53.254;10.400;2024-03-29T12:28:07;3.37;;;3.07;;
934;SDS011;454;53.254;10.400;2024-03-29T12:30:35;1.23;;;1.23;;
934;SDS011;454;53.254;10.400;2024-03-29T12:33:02;1.93;;;1.83;;
934;SDS011;454;53.254;10.400;2024-03-29T12:35:31;1.50;;;1.40;;
934;SDS011;454;53.254;10.400;2024-03-29T12:37:59;2.93;;;2.80;;
934;SDS011;454;53.254;10.400;2024-03-29T12:40:27;0.53;;;0.53;;
934;SDS011;454;53.254;10.400;2024-03-29T12:42:58;1.57;;;1.57;;
934;SDS011;454;53.254;10.400;2024-03-29T12:45:28;1.10;;;1.10;;
934;SDS011;454;53.254;10.400;2024-03-29T12:47:54;0.90;;;0.90;;
934;SDS011;454;53.254;10.400;2024-03-29T12:50:25;1.63;;;1.63;;
934;SDS011;454;53.254;10.400;2024-03-29T12:52:53;1.60;;;0.43;;
934;SDS011;454;53.254;10.400;2024-03-29T12:55:20;1.13;;;1.03;;
934;SDS011;454;53.254;10.400;2024-03-29T12:57:48;5.17;;;3.00;;
934;SDS011;454;53.254;10.400;2024-03-29T13:00:16;2.00;;;1.90;;
934;SDS011;454;53.254;10.400;2024-03-29T13:02:43;2.30;;;2.17;;
934;SDS011;454;53.254;10.400;2024-03-29T13:05:10;2.90;;;2.77;;
934;SDS011;454;53.254;10.400;2024-03-29T13:07:37;1.23;;;1.23;;
934;SDS011;454;53.254;10.400;2024-03-29T13:10:04;1.60;;;1.50;;
934;SDS011;454;53.254;10.400;2024-03-29T13:12:37;0.70;;;0.70;;
934;SDS011;454;53.254;10.400;2024-03-29T13:15:14;1.40;;;1.40;;
934;SDS011;454;53.254;10.400;2024-03-29T13:17:44;0.50;;;0.50;;
934;SDS011;454;53.254;10.400;2024-03-29T13:20:12;1.30;;;0.97;;
934;SDS011;454;53.254;10.400;2024-03-29T13:22:40;2.00;;;1.30;;
934;SDS011;454;53.254;10.400;2024-03-29T13:25:09;1.60;;;1.60;;
934;SDS011;454;53.254;10.400;2024-03-29T13:27:36;1.47;;;1.47;;
934;SDS011;454;53.254;10.400;2024-03-29T13:30:04;1.27;;;1.10;;
934;SDS011;454;53.254;10.400;2024-03-29T13:32:34;2.50;;;1.10;;
934;SDS011;454;53.254;10.400;2024-03-29T13:35:00;1.00;;;1.00;;
934;SDS011;454;53.254;10.400;2024-03-29T13:37:30;2.60;;;2.50;;
934;SDS011;454;53.254;10.400;2024-03-29T13:39:57;2.57;;;2.47;;
934;SDS011;454;53.254;10.400;2024-03-29T13:42:23;1.30;;;1.20;;
934;SDS011;454;53.254;10.400;2024-03-29T13:44:50;0.83;;;0.83;;
934;SDS011;454;53.254;10.400;2024-03-29T13:47:18;0.70;;;0.70;;
934;SDS011;454;53.254;10.400;2024-03-29T13:49:46;1.33;;;1.33;;
934;SDS011;454;53.254;10.400;2024-03-29T13:52:15;2.10;;;1.13;;
934;SDS011;454;53.254;10.400;2024-03-29T13:54:42;1.50;;;1.40;;
934;SDS011;454;53.254;10.400;2024-03-29T13:57:11;0.97;;;0.87;;
934;SDS011;454;53.254;10.400;2024-03-29T13:59:38;1.50;;;1.50;;
934;SDS011;454;53.254;10.400;2024-03-29T14:02:07;2.40;;;2.30;;
934;SDS011;454;53.254;10.400;2024-03-29T14:04:34;1.70;;;1.60;;
934;SDS011;454;53.254;10.400;2024-03-29T14:07:02;1.20;;;1.20;;
934;SDS011;454;53.254;10.400;2024-03-29T14:09:32;0.87;;;0.87;;
934;SDS011;454;53.254;10.400;2024-03-29T14:11:59;1.20;;;1.10;;
934;SDS011;454;53.254;10.400;2024-03-29T14:14:25;0.93;;;0.93;;
934;SDS011;454;53.254;10.400;2024-03-29T14:16:52;3.30;;;2.47;;
934;SDS011;454;53.254;10.400;2024-03-29T14:19:19;2.53;;;2.33;;
934;SDS011;454;53.254;10.400;2024-03-29T14:21:45;2.87;;;2.73;;
934;SDS011;454;53.254;10.400;2024-03-29T14:24:13;2.80;;;2.70;;
934;SDS011;454;53.254;10.400;2024-03-29T14:26:40;1.70;;;1.70;;
934;SDS011;454;53.254;10.400;2024-03-29T14:29:08;1.30;;;1.30;;
934;SDS011;454;53.254;10.400;2024-03-29T14:31:36;1.30;;;1.30;;
934;SDS011;454;53.254;10.400;2024-03-29T14:34:03;4.43;;;4.13;;
934;SDS011;454;53.254;10.400;2024-03-29T14:36:30;3.33;;;3.23;;
934;SDS011;454;53.254;10.400;2024-03-29T14:38:58;1.40;;;1.40;;
934;SDS011;454;53.254;10.400;2024-03-29T14:41:27;3.90;;;3.63;;
934;SDS011;454;53.254;10.400;2024-03-29T14:43:54;1.30;;;1.30;;
934;SDS011;454;53.254;10.400;2024-03-29T14:46:22;0.70;;;0.70;;
934;SDS011;454;53.254;10.400;2024-03-29T14:48:50;4.17;;;2.20;;
934;SDS011;454;53.254;10.400;2024-03-29T14:51:16;2.50;;;2.40;;
934;SDS011;454;53.254;10.400;2024-03-29T14:53:44;1.30;;;1.30;;
934;SDS011;454;53.254;10.400;2024-03-29T14:56:14;2.00;;;1.90;;
934;SDS011;454;53.254;10.400;2024-03-29T14:58:42;1.20;;;1.20;;
934;SDS011;454;53.254;10.400;2024-03-29T15:01:10;0.93;;;0.93;;
934;SDS011;454;53.254;10.400;2024-03-29T15:03:36;1.30;;;1.20;;
934;SDS011;454;53.254;10.400;2024-03-29T15:06:03;0.93;;;0.93;;
934;SDS011;454;53.254;10.400;2024-03-29T15:08:31;1.20;;;1.20;;
934;SDS011;454;53.254;10.400;2024-03-29T15:10:57;1.20;;;1.20;;
934;SDS011;454;53.254;10.400;2024-03-29T15:13:24;1.23;;;1.23;;
934;SDS011;454;53.254;10.400;2024-03-29T15:15:56;0.87;;;0.87;;
934;SDS011;454;53.254;10.400;2024-03-29T15:18:23;1.23;;;0.80;;
934;SDS011;454;53.254;10.400;2024-03-29T15:20:53;0.87;;;0.57;;
934;SDS011;454;53.254;10.400;2024-03-29T15:23:21;0.67;;;0.67;;
934;SDS011;454;53.254;10.400;2024-03-29T15:25:49;1.53;;;1.53;;
934;SDS011;454;53.254;10.400;2024-03-29T15:28:17;1.87;;;1.10;;
934;SDS011;454;53.254;10.400;2024-03-29T15:31:08;2.83;;;2.57;;
934;SDS011;454;53.254;10.400;2024-03-29T15:33:36;1.33;;;1.23;;
934;SDS011;454;53.254;10.400;2024-03-29T15:36:03;2.00;;;1.93;;
934;SDS011;454;53.254;10.400;2024-03-29T15:38:30;0.93;;;0.93;;
934;SDS011;454;53.254;10.400;2024-03-29T15:40:58;0.50;;;0.50;;
934;SDS011;454;53.254;10.400;2024-03-29T15:43:25;7.73;;;5.47;;
934;SDS011;454;53.254;10.400;2024-03-29T15:45:53;2.30;;;2.10;;
934;SDS011;454;53.254;10.400;2024-03-29T15:48:22;6.17;;;3.57;;
934;SDS011;454;53.254;10.400;2024-03-29T15:50:48;2.07;;;1.97;;
934;SDS011;454;53.254;10.400;2024-03-29T15:53:15;3.30;;;3.00;;
934;SDS011;454;53.254;10.400;2024-03-29T15:55:42;3.23;;;1.90;;
934;SDS011;454;53.254;10.400;2024-03-29T15:58:10;1.00;;;1.00;;
934;SDS011;454;53.254;10.400;2024-03-29T16:00:37;1.40;;;1.40;;
934;SDS011;454;53.254;10.400;2024-03-29T16:03:08;1.80;;;1.70;;
934;SDS011;454;53.254;10.400;2024-03-29T16:05:36;1.83;;;1.73;;
934;SDS011;454;53.254;10.400;2024-03-29T16:08:03;4.93;;;4.40;;
934;SDS011;454;53.254;10.400;2024-03-29T16:10:30;2.10;;;2.00;;
934;SDS011;454;53.254;10.400;2024-03-29T16:12:57;1.80;;;0.90;;
934;SDS011;454;53.254;10.400;2024-03-29T16:15:24;1.30;;;1.30;;
934;SDS011;454;53.254;10.400;2024-03-29T16:17:51;2.00;;;1.90;;
934;SDS011;454;53.254;10.400;2024-03-29T16:20:18;0.90;;;0.90;;
934;SDS011;454;53.254;10.400;2024-03-29T16:22:45;1.90;;;1.10;;
934;SDS011;454;53.254;10.400;2024-03-29T16:25:11;1.20;;;1.20;;
934;SDS011;454;53.254;10.400;2024-03-29T16:27:37;0.80;;;0.80;;
934;SDS011;454;53.254;10.400;2024-03-29T16:30:05;3.10;;;1.30;;
934;SDS011;454;53.254;10.400;2024-03-29T16:32:31;3.10;;;2.90;;
934;SDS011;454;53.254;10.400;2024-03-29T16:35:00;2.30;;;2.30;;
934;SDS011;454;53.254;10.400;2024-03-29T16:37:25;5.33;;;4.90;;
934;SDS011;454;53.254;10.400;2024-03-29T16:39:53;5.40;;;4.90;;
934;SDS011;454;53.254;10.400;2024-03-29T16:42:19;3.47;;;3.27;;
934;SDS011;454;53.254;10.400;2024-03-29T16:44:46;4.07;;;2.10;;
934;SDS011;454;53.254;10.400;2024-03-29T16:47:12;1.87;;;1.77;;
934;SDS011;454;53.254;10.400;2024-03-29T16:49:38;1.63;;;1.53;;
934;SDS011;454;53.254;10.400;2024-03-29T16:52:04;1.23;;;0.90;;
934;SDS011;454;53.254;10.400;2024-03-29T16:54:31;1.37;;;1.37;;
934;SDS011;454;53.254;10.400;2024-03-29T16:56:58;9.27;;;6.23;;
934;SDS011;454;53.254;10.400;2024-03-29T16:59:26;3.10;;;1.80;;
934;SDS011;454;53.254;10.400;2024-03-29T17:01:53;2.10;;;1.70;;
934;SDS011;454;53.254;10.400;2024-03-29T17:04:20;1.33;;;1.33;;
934;SDS011;454;53.254;10.400;2024-03-29T17:06:46;3.80;;;1.93;;
934;SDS011;454;53.254;10.400;2024-03-29T17:09:14;10.87;;;6.37;;
934;SDS011;454;53.254;10.400;2024-03-29T17:12:00;2.57;;;2.47;;
934;SDS011;454;53.254;10.400;2024-03-29T17:14:28;1.43;;;1.43;;
934;SDS011;454;53.254;10.400;2024-03-29T17:16:55;6.67;;;4.60;;
934;SDS011;454;53.254;10.400;2024-03-29T17:19:25;2.40;;;1.40;;
934;SDS011;454;53.254;10.400;2024-03-29T17:21:51;7.60;;;4.87;;
934;SDS011;454;53.254;10.400;2024-03-29T17:24:18;2.73;;;2.50;;
934;SDS011;454;53.254;10.400;2024-03-29T17:26:44;1.70;;;1.60;;
934;SDS011;454;53.254;10.400;2024-03-29T17:29:12;1.80;;;1.80;;
934;SDS011;454;53.254;10.400;2024-03-29T17:31:37;3.20;;;3.00;;
934;SDS011;454;53.254;10.400;2024-03-29T17:34:06;5.70;;;3.42;;
934;SDS011;454;53.254;10.400;2024-03-29T17:36:32;2.15;;;2.00;;
934;SDS011;454;53.254;10.400;2024-03-29T17:38:59;2.90;;;2.80;;
934;SDS011;454;53.254;10.400;2024-03-29T17:41:25;4.43;;;4.20;;
934;SDS011;454;53.254;10.400;2024-03-29T17:43:52;8.33;;;7.07;;
934;SDS011;454;53.254;10.400;2024-03-29T17:46:19;4.93;;;4.57;;
934;SDS011;454;53.254;10.400;2024-03-29T17:48:47;5.25;;;4.95;;
934;SDS011;454;53.254;10.400;2024-03-29T17:51:12;3.00;;;2.80;;
934;SDS011;454;53.254;10.400;2024-03-29T17:53:39;3.50;;;3.30;;
934;SDS011;454;53.254;10.400;2024-03-29T17:56:05;9.77;;;6.80;;
934;SDS011;454;53.254;10.400;2024-03-29T17:58:32;4.33;;;4.03;;
934;SDS011;454;53.254;10.400;2024-03-29T18:00:58;4.40;;;4.00;;
934;SDS011;454;53.254;10.400;2024-03-29T18:03:26;4.10;;;3.30;;
934;SDS011;454;53.254;10.400;2024-03-29T18:05:52;3.60;;;2.53;;
934;SDS011;454;53.254;10.400;2024-03-29T18:08:19;4.95;;;4.35;;
934;SDS011;454;53.254;10.400;2024-03-29T18:10:46;4.38;;;3.97;;
934;SDS011;454;53.254;10.400;2024-03-29T18:13:12;5.47;;;5.00;;
934;SDS011;454;53.254;10.400;2024-03-29T18:15:40;6.47;;;4.82;;
934;SDS011;454;53.254;10.400;2024-03-29T18:18:08;2.23;;;2.17;;
934;SDS011;454;53.254;10.400;2024-03-29T18:20:35;3.13;;;2.92;;
934;SDS011;454;53.254;10.400;2024-03-29T18:23:02;2.67;;;2.47;;
934;SDS011;454;53.254;10.400;2024-03-29T18:25:29;2.67;;;2.58;;
934;SDS011;454;53.254;10.400;2024-03-29T18:27:56;5.90;;;4.67;;
934;SDS011;454;53.254;10.400;2024-03-29T18:30:22;2.40;;;2.00;;
934;SDS011;454;53.254;10.400;2024-03-29T18:32:50;2.63;;;2.27;;
934;SDS011;454;53.254;10.400;2024-03-29T18:35:16;2.53;;;2.43;;
934;SDS011;454;53.254;10.400;2024-03-29T18:37:44;2.30;;;2.20;;
934;SDS011;454;53.254;10.400;2024-03-29T18:40:10;1.95;;;1.83;;
934;SDS011;454;53.254;10.400;2024-03-29T18:42:38;2.08;;;1.92;;
934;SDS011;454;53.254;10.400;2024-03-29T18:45:04;6.73;;;3.53;;
934;SDS011;454;53.254;10.400;2024-03-29T18:47:31;3.08;;;2.95;;
934;SDS011;454;53.254;10.400;2024-03-29T18:49:57;3.87;;;3.43;;
934;SDS011;454;53.254;10.400;2024-03-29T18:52:24;4.80;;;4.32;;
934;SDS011;454;53.254;10.400;2024-03-29T18:54:51;3.73;;;3.53;;
934;SDS011;454;53.254;10.400;2024-03-29T18:57:18;4.57;;;4.18;;
934;SDS011;454;53.254;10.400;2024-03-29T18:59:44;3.27;;;3.10;;
934;SDS011;454;53.254;10.400;2024-03-29T19:02:10;2.38;;;2.28;;
934;SDS011;454;53.254;10.400;2024-03-29T19:04:36;3.30;;;3.10;;
934;SDS011;454;53.254;10.400;2024-03-29T19:07:06;2.92;;;2.72;;
934;SDS011;454;53.254;10.400;2024-03-29T19:09:32;5.30;;;4.90;;
934;SDS011;454;53.254;10.400;2024-03-29T19:12:00;3.50;;;3.30;;
934;SDS011;454;53.254;10.400;2024-03-29T19:14:26;4.07;;;3.75;;
934;SDS011;454;53.254;10.400;2024-03-29T19:16:53;4.40;;;4.00;;
934;SDS011;454;53.254;10.400;2024-03-29T19:19:21;4.07;;;3.88;;
934;SDS011;454;53.254;10.400;2024-03-29T19:21:49;2.97;;;2.83;;
934;SDS011;454;53.254;10.400;2024-03-29T19:24:16;2.60;;;2.40;;
934;SDS011;454;53.254;10.400;2024-03-29T19:26:43;2.00;;;1.90;;
934;SDS011;454;53.254;10.400;2024-03-29T19:29:11;2.37;;;2.27;;
934;SDS011;454;53.254;10.400;2024-03-29T19:31:38;2.53;;;2.42;;
934;SDS011;454;53.254;10.400;2024-03-29T19:34:04;5.70;;;2.80;;
934;SDS011;454;53.254;10.400;2024-03-29T19:36:31;2.53;;;2.42;;
934;SDS011;454;53.254;10.400;2024-03-29T19:38:56;2.43;;;2.43;;
934;SDS011;454;53.254;10.400;2024-03-29T19:41:24;2.55;;;2.28;;
934;SDS011;454;53.254;10.400;2024-03-29T19:43:51;2.35;;;1.90;;
934;SDS011;454;53.254;10.400;2024-03-29T19:46:22;3.25;;;3.05;;
934;SDS011;454;53.254;10.400;2024-03-29T19:48:48;4.88;;;2.95;;
934;SDS011;454;53.254;10.400;2024-03-29T19:51:15;3.22;;;2.83;;
934;SDS011;454;53.254;10.400;2024-03-29T19:53:41;4.63;;;4.32;;
934;SDS011;454;53.254;10.400;2024-03-29T19:56:12;3.63;;;3.53;;
934;SDS011;454;53.254;10.400;2024-03-29T19:58:39;10.10;;;4.40;;
934;SDS011;454;53.254;10.400;2024-03-29T20:01:06;3.90;;;3.70;;
934;SDS011;454;53.254;10.400;2024-03-29T20:03:33;4.63;;;4.22;;
934;SDS011;454;53.254;10.400;2024-03-29T20:06:00;4.57;;;4.20;;
934;SDS011;454;53.254;10.400;2024-03-29T20:08:26;6.53;;;4.70;;
934;SDS011;454;53.254;10.400;2024-03-29T20:10:53;4.50;;;4.20;;
934;SDS011;454;53.254;10.400;2024-03-29T20:13:19;4.60;;;4.30;;
934;SDS011;454;53.254;10.400;2024-03-29T20:15:46;4.15;;;3.95;;
934;SDS011;454;53.254;10.400;2024-03-29T20:18:13;3.67;;;3.47;;
934;SDS011;454;53.254;10.400;2024-03-29T20:20:46;5.07;;;4.55;;
934;SDS011;454;53.254;10.400;2024-03-29T20:23:12;5.93;;;5.43;;
934;SDS011;454;53.254;10.400;2024-03-29T20:25:39;3.90;;;3.70;;
934;SDS011;454;53.254;10.400;2024-03-29T20:28:07;4.03;;;3.10;;
934;SDS011;454;53.254;10.400;2024-03-29T20:30:33;2.95;;;2.65;;
934;SDS011;454;53.254;10.400;2024-03-29T20:32:59;2.77;;;2.60;;